createdAt,value
2023-02-24T00:00:53.187Z,1.70
2023-02-24T00:04:00.383Z,1.83
2023-02-24T00:07:04.232Z,1.87
2023-02-24T00:10:12.202Z,1.43
2023-02-24T00:13:22.328Z,2.30
2023-02-24T00:16:27.387Z,2.40
2023-02-24T00:19:34.028Z,2.80
2023-02-24T00:22:37.619Z,1.67
2023-02-24T00:25:41.075Z,2.60
2023-02-24T00:28:46.064Z,1.70
2023-02-24T00:32:00.356Z,1.63
2023-02-24T00:35:04.385Z,1.63
2023-02-24T00:38:07.811Z,1.63
2023-02-24T00:41:14.410Z,1.87
2023-02-24T00:44:19.247Z,1.70
2023-02-24T00:47:23.705Z,1.60
2023-02-24T00:50:27.496Z,1.90
2023-02-24T00:53:31.072Z,1.80
2023-02-24T00:56:35.288Z,1.73
2023-02-24T00:59:40.656Z,1.40
2023-02-24T01:02:46.386Z,1.33
2023-02-24T01:05:50.658Z,1.63
2023-02-24T01:08:56.249Z,1.53
2023-02-24T01:12:17.251Z,1.10
2023-02-24T01:15:24.146Z,1.17
2023-02-24T01:18:27.610Z,1.53
2023-02-24T01:21:31.557Z,1.37
2023-02-24T01:24:39.146Z,1.87
2023-02-24T01:27:42.732Z,1.63
2023-02-24T01:30:47.689Z,1.63
2023-02-24T01:33:52.150Z,1.90
2023-02-24T01:36:55.922Z,1.80
2023-02-24T01:39:59.419Z,1.40
2023-02-24T01:43:08.674Z,1.53
2023-02-24T01:46:13.790Z,1.70
2023-02-24T01:49:22.305Z,1.30
2023-02-24T01:52:31.532Z,1.47
2023-02-24T01:55:41.633Z,1.50
2023-02-24T01:58:45.443Z,1.20
2023-02-24T02:01:53.472Z,1.27
2023-02-24T02:05:03.848Z,1.47
2023-02-24T02:08:09.836Z,1.50
2023-02-24T02:11:22.774Z,1.40
2023-02-24T02:14:32.247Z,1.20
2023-02-24T02:17:51.337Z,1.47
2023-02-24T02:21:56.412Z,1.73
2023-02-24T02:25:10.635Z,1.40
2023-02-24T02:28:58.701Z,1.40
2023-02-24T02:32:52.357Z,1.57
2023-02-24T02:36:07.318Z,1.27
2023-02-24T02:39:27.095Z,1.20
2023-02-24T02:42:43.510Z,1.70
2023-02-24T02:45:58.154Z,1.50
2023-02-24T02:49:16.936Z,1.73
2023-02-24T02:52:30.092Z,1.50
2023-02-24T02:55:43.210Z,1.47
2023-02-24T02:58:54.342Z,1.40
2023-02-24T03:02:11.660Z,1.47
2023-02-24T03:05:21.440Z,1.10
2023-02-24T03:08:34.724Z,1.73
2023-02-24T03:11:38.669Z,1.30
2023-02-24T03:14:51.171Z,2.10
2023-02-24T03:18:02.789Z,1.77
2023-02-24T03:21:11.955Z,1.53
2023-02-24T03:24:17.221Z,1.23
2023-02-24T03:27:30.345Z,1.43
2023-02-24T03:30:44.558Z,1.23
2023-02-24T03:34:00.577Z,1.50
2023-02-24T03:37:04.949Z,2.60
2023-02-24T03:40:15.932Z,1.07
2023-02-24T03:43:27.972Z,1.20
2023-02-24T03:46:33.175Z,1.20
2023-02-24T03:49:38.442Z,1.63
2023-02-24T03:52:48.995Z,1.50
2023-02-24T03:56:11.029Z,1.57
2023-02-24T03:59:34.374Z,1.47
2023-02-24T04:02:38.817Z,1.33
2023-02-24T04:05:50.805Z,1.40
2023-02-24T04:09:04.780Z,1.30
2023-02-24T04:12:19.928Z,1.50
2023-02-24T04:15:31.063Z,1.60
2023-02-24T04:18:35.404Z,1.23
2023-02-24T04:21:43.068Z,1.50
2023-02-24T04:24:53.405Z,1.43
2023-02-24T04:28:03.146Z,1.80
2023-02-24T04:31:17.604Z,2.03
2023-02-24T04:34:21.307Z,1.70
2023-02-24T04:37:31.889Z,1.97
2023-02-24T04:40:36.818Z,1.90
2023-02-24T04:43:41.982Z,2.53
2023-02-24T04:46:45.997Z,1.40
2023-02-24T04:49:49.623Z,1.90
2023-02-24T04:52:56.162Z,1.97
2023-02-24T04:56:09.047Z,2.93
2023-02-24T04:59:14.136Z,2.03
2023-02-24T05:02:20.005Z,1.93
2023-02-24T05:05:27.701Z,1.90
2023-02-24T05:08:32.278Z,1.83
2023-02-24T05:11:36.665Z,1.80
2023-02-24T05:14:41.633Z,1.97
2023-02-24T05:17:45.098Z,1.50
2023-02-24T05:21:09.384Z,1.60
2023-02-24T05:24:17.190Z,2.20
2023-02-24T05:27:21.410Z,1.87
2023-02-24T05:30:26.527Z,2.23
2023-02-24T05:33:29.992Z,1.63
2023-02-24T05:36:39.075Z,1.70
2023-02-24T05:39:42.639Z,2.43
2023-02-24T05:42:46.274Z,2.43
2023-02-24T05:45:51.215Z,2.30
2023-02-24T05:48:56.917Z,1.87
2023-02-24T05:52:07.557Z,1.90
2023-02-24T05:55:14.128Z,1.87
2023-02-24T05:58:17.752Z,2.17
2023-02-24T06:01:22.828Z,2.57
2023-02-24T06:04:39.542Z,2.40
2023-02-24T06:07:47.302Z,2.73
2023-02-24T06:10:51.692Z,2.10
2023-02-24T06:13:57.987Z,2.00
2023-02-24T06:17:03.846Z,2.30
2023-02-24T06:20:15.484Z,2.90
2023-02-24T06:23:19.527Z,2.60
2023-02-24T06:26:23.129Z,2.70
2023-02-24T06:29:29.668Z,1.40
2023-02-24T06:32:35.822Z,1.30
2023-02-24T06:35:39.575Z,1.40
2023-02-24T06:38:43.831Z,1.13
2023-02-24T06:41:53.004Z,2.37
2023-02-24T06:44:56.668Z,5.93
2023-02-24T06:48:01.689Z,6.37
2023-02-24T06:51:07.333Z,2.43
2023-02-24T06:54:12.725Z,2.60
2023-02-24T06:57:16.413Z,2.23
2023-02-24T07:00:25.251Z,3.13
2023-02-24T07:03:39.674Z,5.23
2023-02-24T07:06:45.838Z,3.30
2023-02-24T07:09:49.460Z,1.87
2023-02-24T07:12:54.724Z,1.97
2023-02-24T07:16:04.158Z,1.67
2023-02-24T07:19:14.156Z,1.40
2023-02-24T07:22:25.241Z,1.87
2023-02-24T07:25:34.040Z,1.70
2023-02-24T07:28:39.986Z,1.53
2023-02-24T07:31:43.697Z,1.87
2023-02-24T07:34:48.716Z,2.07
2023-02-24T07:37:53.001Z,1.80
2023-02-24T07:40:59.702Z,2.23
2023-02-24T07:44:05.959Z,2.10
2023-02-24T07:47:10.060Z,1.80
2023-02-24T07:50:18.486Z,2.10
2023-02-24T07:53:22.746Z,2.80
2023-02-24T07:56:28.454Z,3.73
2023-02-24T07:59:35.298Z,2.20
2023-02-24T08:02:39.029Z,3.43
2023-02-24T08:05:44.786Z,2.67
2023-02-24T08:09:11.148Z,2.87
2023-02-24T08:12:18.226Z,2.63
2023-02-24T08:15:34.243Z,2.83
2023-02-24T08:18:40.620Z,2.87
2023-02-24T08:21:47.539Z,3.03
2023-02-24T08:24:54.929Z,2.80
2023-02-24T08:28:08.398Z,3.30
2023-02-24T08:31:13.239Z,3.57
2023-02-24T08:34:16.972Z,3.03
2023-02-24T08:37:22.025Z,3.47
2023-02-24T08:40:43.304Z,3.27
2023-02-24T08:43:47.678Z,3.67
2023-02-24T08:46:52.494Z,4.03
2023-02-24T08:49:56.175Z,3.67
2023-02-24T08:53:02.197Z,3.37
2023-02-24T08:56:09.713Z,3.33
2023-02-24T08:59:29.254Z,3.07
2023-02-24T09:02:37.472Z,3.20
2023-02-24T09:05:41.153Z,3.20
2023-02-24T09:08:47.373Z,3.43
2023-02-24T09:11:56.380Z,3.27
2023-02-24T09:15:05.546Z,3.77
2023-02-24T09:18:14.327Z,4.23
2023-02-24T09:21:38.111Z,3.63
2023-02-24T09:24:43.674Z,4.33
2023-02-24T09:27:52.430Z,4.93
2023-02-24T09:30:59.018Z,5.50
2023-02-24T09:34:04.073Z,4.90
2023-02-24T09:37:24.905Z,5.07
2023-02-24T09:40:48.933Z,5.13
2023-02-24T09:43:59.951Z,5.50
2023-02-24T09:47:19.996Z,5.27
2023-02-24T09:51:03.125Z,5.73
2023-02-24T09:54:17.638Z,6.23
2023-02-24T09:57:37.362Z,6.97
2023-02-24T10:00:49.143Z,7.00
2023-02-24T10:04:14.963Z,7.17
2023-02-24T10:07:38.538Z,5.50
2023-02-24T10:11:00.895Z,6.60
2023-02-24T10:14:19.564Z,5.83
2023-02-24T10:17:30.699Z,6.30
2023-02-24T10:20:45.704Z,5.83
2023-02-24T10:24:05.652Z,6.63
2023-02-24T10:27:23.952Z,6.73
2023-02-24T10:30:49.172Z,7.17
2023-02-24T10:33:58.515Z,7.90
2023-02-24T10:37:07.728Z,7.40
2023-02-24T10:40:17.453Z,6.80
2023-02-24T10:43:30.348Z,8.00
2023-02-24T10:46:41.450Z,6.60
2023-02-24T10:49:57.136Z,6.67
2023-02-24T10:53:34.551Z,6.00
2023-02-24T10:56:44.676Z,6.87
2023-02-24T11:00:14.599Z,7.17
2023-02-24T11:03:35.953Z,6.97
2023-02-24T11:06:52.748Z,7.40
2023-02-24T11:10:13.726Z,7.60
2023-02-24T11:13:36.049Z,8.37
2023-02-24T11:17:04.707Z,6.93
2023-02-24T11:20:31.285Z,7.73
2023-02-24T11:23:45.153Z,7.67
2023-02-24T11:26:49.591Z,7.43
2023-02-24T11:30:23.696Z,8.30
2023-02-24T11:33:42.620Z,8.17
2023-02-24T11:37:02.790Z,7.93
2023-02-24T11:40:17.454Z,8.13
2023-02-24T11:43:27.020Z,8.30
2023-02-24T11:46:41.730Z,7.80
2023-02-24T11:49:52.673Z,7.57
2023-02-24T11:53:02.486Z,7.60
2023-02-24T11:56:15.446Z,7.73
2023-02-24T11:59:30.505Z,7.03
2023-02-24T12:02:47.162Z,7.97
2023-02-24T12:05:57.588Z,8.17
2023-02-24T12:09:09.525Z,8.87
2023-02-24T12:12:23.251Z,8.57
2023-02-24T12:15:32.154Z,8.90
2023-02-24T12:18:41.270Z,8.70
2023-02-24T12:21:53.182Z,7.77
2023-02-24T12:24:58.504Z,8.93
2023-02-24T12:28:16.819Z,6.07
2023-02-24T12:31:37.599Z,6.00
2023-02-24T12:34:54.184Z,6.20
2023-02-24T12:38:19.260Z,5.13
2023-02-24T12:41:51.507Z,6.20
2023-02-24T12:45:12.072Z,6.03
2023-02-24T12:48:47.681Z,6.00
2023-02-24T12:52:13.151Z,5.93
2023-02-24T12:55:26.757Z,5.83
2023-02-24T12:58:38.433Z,4.77
2023-02-24T13:01:52.846Z,6.33
2023-02-24T13:05:10.338Z,6.00
2023-02-24T13:08:31.603Z,5.50
2023-02-24T13:11:48.110Z,5.60
2023-02-24T13:14:53.456Z,6.27
2023-02-24T13:17:58.327Z,5.43
2023-02-24T13:21:10.140Z,5.93
2023-02-24T13:24:24.679Z,5.20
2023-02-24T13:27:31.588Z,5.50
2023-02-24T13:30:45.397Z,4.20
2023-02-24T13:33:49.522Z,3.00
2023-02-24T13:36:53.509Z,3.27
2023-02-24T13:39:57.648Z,4.03
2023-02-24T13:43:04.878Z,3.43
2023-02-24T13:46:20.370Z,4.07
2023-02-24T13:49:36.933Z,4.30
2023-02-24T13:53:24.897Z,3.33
2023-02-24T13:56:44.864Z,4.40
2023-02-24T14:00:10.100Z,4.23
2023-02-24T14:03:25.722Z,2.30
2023-02-24T14:06:29.931Z,2.67
2023-02-24T14:09:39.385Z,1.50
2023-02-24T14:12:45.382Z,1.50
2023-02-24T14:15:49.737Z,1.67
2023-02-24T14:19:01.788Z,1.87
2023-02-24T14:22:05.861Z,2.03
2023-02-24T14:25:12.571Z,2.23
2023-02-24T14:28:24.726Z,2.57
2023-02-24T14:31:30.247Z,2.27
2023-02-24T14:34:36.163Z,1.70
2023-02-24T14:37:40.711Z,2.40
2023-02-24T14:40:49.234Z,2.60
2023-02-24T14:43:53.738Z,2.57
2023-02-24T14:47:00.838Z,2.10
2023-02-24T14:50:07.266Z,2.00
2023-02-24T14:53:19.127Z,1.97
2023-02-24T14:56:29.530Z,2.70
2023-02-24T14:59:39.734Z,2.13
2023-02-24T15:02:54.040Z,1.87
2023-02-24T15:06:05.929Z,2.03
2023-02-24T15:09:21.082Z,1.77
2023-02-24T15:12:33.371Z,1.43
2023-02-24T15:15:39.985Z,1.00
2023-02-24T15:18:44.164Z,1.03
2023-02-24T15:21:49.236Z,1.00
2023-02-24T15:24:55.845Z,1.53
2023-02-24T15:28:02.463Z,1.13
2023-02-24T15:31:11.498Z,1.20
2023-02-24T15:34:21.181Z,0.73
2023-02-24T15:37:29.012Z,0.67
2023-02-24T15:40:33.024Z,1.60
2023-02-24T15:43:40.068Z,0.70
2023-02-24T15:46:43.698Z,0.47
2023-02-24T15:49:47.347Z,0.63
2023-02-24T15:52:52.458Z,0.93
2023-02-24T15:55:56.190Z,0.53
2023-02-24T15:59:02.528Z,0.63
2023-02-24T16:02:15.927Z,0.60
2023-02-24T16:05:19.990Z,0.90
2023-02-24T16:08:25.164Z,1.27
2023-02-24T16:11:35.143Z,1.00
2023-02-24T16:14:40.024Z,1.23
2023-02-24T16:17:44.585Z,0.83
2023-02-24T16:20:54.331Z,1.37
2023-02-24T16:23:59.415Z,1.33
2023-02-24T16:27:03.233Z,1.00
2023-02-24T16:30:08.818Z,1.73
2023-02-24T16:33:14.645Z,2.33
2023-02-24T16:36:20.747Z,1.97
2023-02-24T16:39:26.572Z,1.50
2023-02-24T16:42:30.068Z,2.17
2023-02-24T16:45:35.796Z,2.07
2023-02-24T16:48:41.994Z,1.77
2023-02-24T16:51:45.683Z,2.47
2023-02-24T16:54:50.496Z,3.73
2023-02-24T16:57:54.055Z,3.13
2023-02-24T17:01:02.738Z,3.00
2023-02-24T17:04:09.915Z,3.43
2023-02-24T17:07:14.631Z,3.97
2023-02-24T17:10:21.045Z,3.13
2023-02-24T17:13:24.755Z,3.40
2023-02-24T17:16:28.349Z,3.27
2023-02-24T17:19:31.994Z,3.47
2023-02-24T17:22:37.123Z,2.67
2023-02-24T17:25:42.094Z,3.00
2023-02-24T17:28:46.008Z,3.60
2023-02-24T17:31:49.702Z,3.90
2023-02-24T17:34:53.441Z,2.93
2023-02-24T17:37:56.997Z,3.20
2023-02-24T17:41:03.005Z,3.40
2023-02-24T17:44:08.833Z,3.90
2023-02-24T17:47:13.096Z,4.80
2023-02-24T17:50:17.079Z,4.00
2023-02-24T17:53:21.082Z,4.07
2023-02-24T17:56:26.325Z,3.57
2023-02-24T17:59:30.213Z,3.33
2023-02-24T18:02:34.262Z,3.70
2023-02-24T18:05:38.332Z,3.83
2023-02-24T18:08:45.452Z,3.67
2023-02-24T18:11:51.084Z,3.10
2023-02-24T18:15:07.239Z,4.77
2023-02-24T18:18:12.077Z,4.20
2023-02-24T18:21:15.675Z,3.90
2023-02-24T18:24:19.645Z,3.60
2023-02-24T18:27:24.669Z,3.63
2023-02-24T18:30:28.449Z,3.53
2023-02-24T18:33:32.128Z,4.07
2023-02-24T18:36:36.011Z,3.63
2023-02-24T18:39:39.586Z,4.00
2023-02-24T18:42:45.110Z,4.40
2023-02-24T18:45:49.015Z,3.50
2023-02-24T18:48:55.930Z,4.10
2023-02-24T18:51:59.763Z,3.73
2023-02-24T18:55:03.307Z,5.10
2023-02-24T18:58:08.297Z,5.43
2023-02-24T19:01:14.202Z,5.23
2023-02-24T19:04:17.780Z,4.57
2023-02-24T19:07:21.631Z,4.83
2023-02-24T19:10:25.534Z,4.13
2023-02-24T19:13:30.902Z,4.20
2023-02-24T19:16:36.454Z,4.43
2023-02-24T19:19:40.857Z,5.13
2023-02-24T19:22:44.874Z,5.07
2023-02-24T19:25:52.142Z,5.30
2023-02-24T19:29:00.071Z,3.97
2023-02-24T19:32:03.770Z,4.60
2023-02-24T19:35:09.227Z,5.13
2023-02-24T19:38:16.231Z,4.00
2023-02-24T19:41:20.191Z,3.17
2023-02-24T19:44:25.100Z,2.83
2023-02-24T19:47:29.085Z,3.17
2023-02-24T19:50:32.771Z,2.30
2023-02-24T19:53:36.468Z,2.70
2023-02-24T19:56:46.978Z,3.00
2023-02-24T19:59:55.052Z,3.60
2023-02-24T20:02:59.131Z,2.50
2023-02-24T20:06:03.009Z,2.70
2023-02-24T20:09:08.536Z,2.83
2023-02-24T20:12:12.192Z,2.90
2023-02-24T20:15:26.554Z,2.40
2023-02-24T20:18:31.135Z,3.47
2023-02-24T20:21:35.575Z,2.50
2023-02-24T20:24:39.391Z,3.40
2023-02-24T20:27:42.883Z,2.43
2023-02-24T20:30:48.065Z,2.80
2023-02-24T20:35:11.830Z,3.40
2023-02-24T20:38:15.821Z,3.53
2023-02-24T20:41:21.201Z,4.40
2023-02-24T20:44:24.882Z,3.83
2023-02-24T20:47:30.156Z,4.30
2023-02-24T20:50:35.729Z,4.07
2023-02-24T20:53:55.611Z,4.07
2023-02-24T20:57:00.027Z,4.93
2023-02-24T21:00:07.962Z,3.77
2023-02-24T21:03:12.890Z,4.70
2023-02-24T21:06:18.672Z,4.17
2023-02-24T21:09:22.351Z,4.17
2023-02-24T21:12:25.939Z,4.37
2023-02-24T21:15:52.283Z,5.00
2023-02-24T21:18:58.880Z,3.87
2023-02-24T21:22:02.517Z,4.20
2023-02-24T21:25:07.172Z,3.93
2023-02-24T21:28:11.430Z,3.37
2023-02-24T21:31:17.978Z,3.77
2023-02-24T21:34:23.363Z,5.97
2023-02-24T21:37:26.966Z,4.63
2023-02-24T21:40:30.469Z,4.73
2023-02-24T21:43:34.546Z,3.90
2023-02-24T21:46:38.259Z,3.70
2023-02-24T21:49:44.096Z,4.00
2023-02-24T21:52:47.838Z,4.20
2023-02-24T21:55:51.367Z,5.33
2023-02-24T21:58:59.510Z,4.40
2023-02-24T22:02:03.147Z,4.37
2023-02-24T22:05:09.013Z,5.20
2023-02-24T22:08:12.505Z,6.10
2023-02-24T22:11:18.274Z,5.07
2023-02-24T22:14:21.835Z,5.30
2023-02-24T22:17:25.465Z,4.90
2023-02-24T22:20:30.445Z,4.73
2023-02-24T22:23:33.945Z,5.23
2023-02-24T22:26:37.493Z,6.00
2023-02-24T22:29:41.210Z,5.37
2023-02-24T22:32:44.776Z,4.40
2023-02-24T22:35:49.697Z,4.60
2023-02-24T22:38:54.017Z,3.90
2023-02-24T22:41:57.615Z,4.03
2023-02-24T22:45:01.353Z,3.03
2023-02-24T22:48:05.382Z,3.93
2023-02-24T22:51:13.360Z,3.40
2023-02-24T22:54:17.252Z,3.60
2023-02-24T22:57:20.955Z,3.17
2023-02-24T23:00:26.267Z,3.40
2023-02-24T23:03:31.770Z,2.60
2023-02-24T23:06:37.862Z,2.63
2023-02-24T23:09:47.232Z,2.50
2023-02-24T23:12:50.787Z,2.47
2023-02-24T23:15:54.219Z,2.60
2023-02-24T23:19:00.983Z,1.53
2023-02-24T23:22:07.793Z,2.63
2023-02-24T23:25:13.368Z,2.27
2023-02-24T23:28:16.937Z,1.67
2023-02-24T23:31:22.239Z,1.50
2023-02-24T23:34:25.849Z,1.87
2023-02-24T23:37:30.825Z,2.50
2023-02-24T23:40:48.089Z,1.73
2023-02-24T23:43:53.400Z,1.80
2023-02-24T23:46:58.557Z,1.97
2023-02-24T23:50:02.110Z,1.80
2023-02-24T23:53:07.771Z,2.03
2023-02-24T23:56:17.292Z,1.60
2023-02-24T23:59:20.806Z,1.83
